Terminal Aerodrome Forecast
Issued by NWS

Home | Current Version | Previous Version | Text Only | Print | Product List | Glossary On
Versions: 1 2 3 4 5 6 7 8 9 10 11 12 13
000
FTUS43 KGLD 110521
TAFMCK
TAF
KMCK 110521Z 1106/1206 26008KT P6SM SKC
     FM111100 29013G21KT P6SM FEW200
     FM111700 32022G32KT P6SM SCT200
     FM120100 34009KT P6SM SKC=

USA.gov is the U.S. government's official web portal to all federal, state and local government web resources and services.